Time;durP1;ratioP1;P1;durP2;ratioP2;P2;SDS_P1;SDS_P2;PMS_P1;PMS_P2;Temp;Humidity;BMP_temperature;BMP_pressure;BME280_temperature;BME280_humidity;BME280_pressure;Samples;Min_cycle;Max_cycle;Signal;HPM_P1;HPM_P2
2023/05/06 00:00:47;;;;;;;10.23;4.57;;;;;;;-145.18;100.00;46658.44;4953153;28;20035;-70
2023/05/06 00:03:12;;;;;;;10.33;5.90;;;;;;;-145.18;100.00;46660.41;4952936;28;20600;-70
2023/05/06 00:05:38;;;;;;;7.13;4.60;;;;;;;-145.18;100.00;46660.41;4953130;29;20520;-70
2023/05/06 00:08:04;;;;;;;8.03;4.83;;;;;;;-145.18;100.00;46656.50;4947434;28;20042;-70
2023/05/06 00:10:30;;;;;;;7.10;4.80;;;;;;;-145.18;100.00;46656.50;4961167;28;20038;-70
2023/05/06 00:12:55;;;;;;;8.77;5.43;;;;;;;-145.18;100.00;46658.44;4964503;28;20114;-70
2023/05/06 00:15:20;;;;;;;10.10;6.30;;;;;;;-145.18;100.00;46654.53;4963474;28;20057;-69
2023/05/06 00:17:46;;;;;;;9.23;6.40;;;;;;;-145.18;100.00;46654.53;4952951;29;20163;-70
2023/05/06 00:20:11;;;;;;;8.30;5.80;;;;;;;-145.18;100.00;46656.50;4952524;29;20118;-69
2023/05/06 00:22:37;;;;;;;9.90;5.83;;;;;;;-145.18;100.00;46656.50;4952715;29;20492;-70
2023/05/06 00:25:02;;;;;;;10.30;5.40;;;;;;;-145.18;100.00;46656.50;4952184;28;20481;-70
2023/05/06 00:27:28;;;;;;;8.77;6.03;;;;;;;-145.18;100.00;46658.44;4962227;28;20038;-70
2023/05/06 00:29:53;;;;;;;10.67;6.90;;;;;;;-145.18;100.00;46656.50;4971736;28;20046;-69
2023/05/06 00:32:18;;;;;;;11.17;7.20;;;;;;;-145.18;100.00;46660.41;4971873;28;20030;-69
2023/05/06 00:34:44;;;;;;;11.50;7.07;;;;;;;-145.18;100.00;46650.63;4971712;28;20035;-70
2023/05/06 00:37:10;;;;;;;11.83;6.87;;;;;;;-145.18;100.00;46654.53;4964366;28;20043;-70
2023/05/06 00:39:35;;;;;;;11.27;7.23;;;;;;;-145.18;100.00;46654.53;4952696;29;20154;-70
2023/05/06 00:42:01;;;;;;;9.57;7.03;;;;;;;-145.18;100.00;46652.59;4952214;29;20041;-70
2023/05/06 00:44:27;;;;;;;11.03;7.03;;;;;;;-145.18;100.00;46650.63;4952222;29;20035;-70
2023/05/06 00:46:54;;;;;;;9.57;6.27;;;;;;;-145.18;100.00;46650.63;4952170;28;20112;-70
2023/05/06 00:49:20;;;;;;;9.43;6.60;;;;;;;-145.18;100.00;46650.63;4961635;28;20042;-70
2023/05/06 00:51:46;;;;;;;14.80;6.93;;;;;;;-145.18;100.00;46652.59;4971288;28;20047;-69
2023/05/06 00:54:11;;;;;;;14.03;6.10;;;;;;;-145.18;100.00;46652.59;4971430;28;20484;-70
2023/05/06 00:56:36;;;;;;;13.07;6.77;;;;;;;-145.18;100.00;46648.69;4969777;28;20402;-70
2023/05/06 00:59:02;;;;;;;10.90;7.03;;;;;;;-145.18;100.00;46650.63;4952330;29;20485;-70
2023/05/06 01:01:29;;;;;;;11.10;6.33;;;;;;;-145.18;100.00;46646.72;4962822;28;20042;-70
2023/05/06 01:03:57;;;;;;;13.40;7.17;;;;;;;-145.18;100.00;46646.72;4971299;28;20042;-70
2023/05/06 01:06:28;;;;;;;13.70;7.43;;;;;;;-145.18;100.00;46648.69;4971119;28;20074;-70
2023/05/06 01:08:59;;;;;;;13.53;6.97;;;;;;;-145.18;100.00;46648.69;4971369;28;20408;-70
2023/05/06 01:11:43;;;;;;;11.20;6.83;;;;;;;-145.18;100.00;46646.72;4971347;28;20114;-70
2023/05/06 01:14:19;;;;;;;11.93;7.43;;;;;;;-145.18;100.00;46650.63;4955476;28;20035;-70
2023/05/06 01:16:46;;;;;;;;;;;;;;;-145.18;100.00;46648.69;4952159;29;20046;-70
2023/05/06 01:19:33;;;;;;;11.37;6.80;;;;;;;-145.18;100.00;46644.78;4934643;29;20215;-70
2023/05/06 01:22:01;;;;;;;9.23;6.17;;;;;;;-145.18;100.00;46646.72;4935248;28;20480;-70
2023/05/06 01:24:37;;;;;;;10.47;6.53;;;;;;;-145.18;100.00;46648.69;4965656;28;20046;-70
2023/05/06 01:27:03;;;;;;;7.57;5.43;;;;;;;-145.18;100.00;46640.88;4951733;29;20118;-70
2023/05/06 01:29:28;;;;;;;12.17;5.10;;;;;;;-145.18;100.00;46646.72;4951496;29;20170;-70
2023/05/06 01:32:00;;;;;;;25.27;5.27;;;;;;;-145.18;100.00;46644.78;4951799;29;20053;-70
2023/05/06 01:34:48;;;;;;;8.73;5.33;;;;;;;-145.18;100.00;46644.78;4951984;28;20512;-70
2023/05/06 01:37:23;;;;;;;6.33;4.63;;;;;;;-145.18;100.00;46644.78;4967485;28;20113;-70
2023/05/06 01:39:49;;;;;;;8.97;6.40;;;;;;;-145.18;100.00;46646.72;4974302;28;20038;-70
2023/05/06 01:42:16;;;;;;;8.97;5.97;;;;;;;-145.18;100.00;46642.81;4974773;28;20039;-70
2023/05/06 01:44:42;;;;;;;9.90;6.77;;;;;;;-145.18;100.00;46642.81;4975158;28;20023;-70
2023/05/06 01:47:09;;;;;;;10.07;6.73;;;;;;;-145.18;100.00;46642.81;4974402;28;20037;-70
2023/05/06 01:49:35;;;;;;;11.90;6.67;;;;;;;-145.18;100.00;46644.78;4962026;28;20054;-70
2023/05/06 01:52:01;;;;;;;10.77;6.73;;;;;;;-145.18;100.00;46648.69;4955106;28;20042;-71
2023/05/06 01:54:26;;;;;;;9.53;5.73;;;;;;;-145.18;100.00;46642.81;4956701;28;20065;-71
2023/05/06 01:56:53;;;;;;;8.03;5.80;;;;;;;-145.18;100.00;46644.78;4955298;29;20058;-71
2023/05/06 01:59:18;;;;;;;8.53;5.00;;;;;;;-145.18;100.00;46646.72;4955532;29;20097;-71
2023/05/06 02:01:43;;;;;;;11.00;5.33;;;;;;;-145.18;100.00;46646.72;5122227;23;20518;-72
2023/05/06 02:04:09;;;;;;;10.33;5.23;;;;;;;-145.18;100.00;46646.72;4965280;28;20109;-72
2023/05/06 02:06:34;;;;;;;18.87;5.03;;;;;;;-145.18;100.00;46646.72;4974342;28;20023;-72
2023/05/06 02:09:00;;;;;;;12.10;4.80;;;;;;;-145.18;100.00;46644.78;4974479;28;20042;-72
2023/05/06 02:11:25;;;;;;;12.10;4.80;;;;;;;-145.18;100.00;46646.72;4974480;28;20446;-72
2023/05/06 02:13:51;;;;;;;11.50;5.20;;;;;;;-145.18;100.00;46644.78;4974337;28;20082;-72
2023/05/06 02:16:16;;;;;;;10.53;5.37;;;;;;;-145.18;100.00;46648.69;4974880;28;20039;-72
2023/05/06 02:18:42;;;;;;;11.80;4.70;;;;;;;-145.18;100.00;46642.81;4974487;28;20044;-72
2023/05/06 02:21:09;;;;;;;8.53;5.87;;;;;;;-145.18;100.00;46648.69;4974570;28;20148;-72
2023/05/06 02:23:34;;;;;;;18.10;7.30;;;;;;;-145.18;100.00;46646.72;4956950;28;20089;-72
2023/05/06 02:26:00;;;;;;;12.90;6.93;;;;;;;-145.18;100.00;46646.72;4974382;28;20038;-72
2023/05/06 02:28:25;;;;;;;13.17;7.40;;;;;;;-145.18;100.00;46648.69;4974159;28;20034;-72
2023/05/06 02:30:57;;;;;;;12.33;7.10;;;;;;;-145.18;100.00;46648.69;4974067;28;20046;-72
2023/05/06 02:33:23;;;;;;;8.53;6.10;;;;;;;-145.18;100.00;46646.72;4974212;28;20503;-72
2023/05/06 02:35:49;;;;;;;9.07;6.47;;;;;;;-145.18;100.00;46648.69;4974117;28;20050;-72
2023/05/06 02:38:15;;;;;;;9.87;6.77;;;;;;;-145.18;100.00;46648.69;4974089;28;20038;-72
2023/05/06 02:40:40;;;;;;;10.47;6.70;;;;;;;-145.18;100.00;46652.59;4973943;28;20046;-72
2023/05/06 02:43:05;;;;;;;12.17;6.63;;;;;;;-145.18;100.00;46648.69;4974128;28;20547;-72
2023/05/06 02:45:31;;;;;;;11.07;7.40;;;;;;;-145.18;100.00;46642.81;4974331;28;20035;-72
2023/05/06 02:47:56;;;;;;;9.93;6.67;;;;;;;-145.18;100.00;46646.72;4973629;28;20121;-72
2023/05/06 02:50:21;;;;;;;18.93;8.10;;;;;;;-145.18;100.00;46648.69;4973959;28;20173;-72
2023/05/06 02:52:47;;;;;;;11.50;7.83;;;;;;;-145.18;100.00;46648.69;4973794;28;20042;-72
2023/05/06 02:55:12;;;;;;;12.47;7.37;;;;;;;-145.18;100.00;46644.78;4973894;28;20039;-72
2023/05/06 02:57:37;;;;;;;13.47;8.77;;;;;;;-145.18;100.00;46642.81;4973527;28;20078;-72
2023/05/06 03:00:05;;;;;;;9.93;7.17;;;;;;;-145.18;100.00;46646.72;4974120;28;20074;-73
2023/05/06 03:02:30;;;;;;;10.00;7.57;;;;;;;-145.18;100.00;46648.69;4961166;28;20056;-72
2023/05/06 03:04:55;;;;;;;12.67;8.30;;;;;;;-145.18;100.00;46646.72;4954200;28;20047;-72
2023/05/06 03:07:21;;;;;;;13.50;8.07;;;;;;;-145.18;100.00;46644.78;4936841;29;20377;-72
2023/05/06 03:09:46;;;;;;;12.90;8.97;;;;;;;-145.18;100.00;46646.72;4954396;29;20111;-72
2023/05/06 03:12:12;;;;;;;13.33;8.63;;;;;;;-145.18;100.00;46644.78;4954244;28;20118;-72
2023/05/06 03:14:37;;;;;;;13.43;8.67;;;;;;;-145.18;100.00;46646.72;4937032;29;20393;-72
2023/05/06 03:17:02;;;;;;;13.23;8.90;;;;;;;-145.18;100.00;46642.81;4953927;29;20073;-72
2023/05/06 03:19:28;;;;;;;15.50;9.53;;;;;;;-145.18;100.00;46644.78;4953603;29;20096;-72
2023/05/06 03:21:53;;;;;;;12.03;8.10;;;;;;;-145.18;100.00;46646.72;4952895;29;20489;-72
2023/05/06 03:24:19;;;;;;;14.63;9.30;;;;;;;-145.18;100.00;46638.91;4953637;29;20452;-72
2023/05/06 03:26:44;;;;;;;15.13;9.07;;;;;;;-145.18;100.00;46642.81;4953192;29;20070;-72
2023/05/06 03:29:10;;;;;;;13.87;9.50;;;;;;;-145.18;100.00;46644.78;4953193;29;20062;-72
2023/05/06 03:31:35;;;;;;;13.50;8.97;;;;;;;-145.18;100.00;46642.81;4936035;29;20086;-72
2023/05/06 03:34:01;;;;;;;11.80;8.40;;;;;;;-145.18;100.00;46644.78;4953191;29;20058;-72
2023/05/06 03:36:26;;;;;;;11.17;8.07;;;;;;;-145.18;100.00;46642.81;4953284;28;20515;-73
2023/05/06 03:38:53;;;;;;;11.43;7.30;;;;;;;-145.18;100.00;46644.78;4952790;29;20059;-72
2023/05/06 03:41:18;;;;;;;13.10;7.00;;;;;;;-145.18;100.00;46646.72;4936147;29;20035;-72
2023/05/06 03:43:43;;;;;;;9.67;6.20;;;;;;;-145.18;100.00;46642.81;4952865;28;20043;-72
2023/05/06 03:46:09;;;;;;;20.07;6.20;;;;;;;-145.18;100.00;46644.78;4936031;29;20043;-72
2023/05/06 03:48:34;;;;;;;9.73;5.40;;;;;;;-145.18;100.00;46638.91;4947140;28;20047;-72
2023/05/06 03:51:00;;;;;;;10.60;6.27;;;;;;;-145.18;100.00;46640.88;4950460;28;20385;-72
2023/05/06 03:53:26;;;;;;;12.37;7.90;;;;;;;-145.18;100.00;46640.88;4952995;29;20597;-73
2023/05/06 03:55:51;;;;;;;10.43;7.83;;;;;;;-145.18;100.00;46644.78;4953131;29;20040;-72
2023/05/06 03:58:17;;;;;;;12.40;8.23;;;;;;;-145.18;100.00;46642.81;4951150;28;20035;-72
2023/05/06 04:00:42;;;;;;;12.63;8.70;;;;;;;-145.18;100.00;46640.88;4952324;29;20467;-72
2023/05/06 04:03:08;;;;;;;11.33;7.73;;;;;;;-145.18;100.00;46640.88;4952714;28;20054;-72
2023/05/06 04:05:33;;;;;;;10.50;7.03;;;;;;;-145.18;100.00;46644.78;4958065;28;20038;-72
2023/05/06 04:07:58;;;;;;;12.57;7.77;;;;;;;-145.18;100.00;46642.81;4953018;28;20141;-72
2023/05/06 04:10:24;;;;;;;12.90;8.47;;;;;;;-145.18;100.00;46644.78;4948717;28;20070;-72
2023/05/06 04:12:49;;;;;;;12.87;8.20;;;;;;;-145.18;100.00;46642.81;4951719;29;20110;-72
2023/05/06 04:15:15;;;;;;;14.23;9.13;;;;;;;-145.18;100.00;46636.94;4935248;29;20502;-72
2023/05/06 04:17:40;;;;;;;14.47;9.63;;;;;;;-145.18;100.00;46642.81;4951788;29;20035;-72
2023/05/06 04:20:10;;;;;;;18.73;9.60;;;;;;;-145.18;100.00;46638.91;4952748;29;20039;-73
2023/05/06 04:22:36;;;;;;;13.10;9.10;;;;;;;-145.18;100.00;46640.88;4952226;29;20035;-73
2023/05/06 04:25:02;;;;;;;14.00;10.13;;;;;;;-145.18;100.00;46646.72;4951620;29;20424;-73
2023/05/06 04:27:28;;;;;;;14.47;10.10;;;;;;;-145.18;100.00;46642.81;4952048;29;20098;-73
2023/05/06 04:29:54;;;;;;;15.73;10.23;;;;;;;-145.18;100.00;46644.78;4951613;29;20158;-72
2023/05/06 04:32:24;;;;;;;15.73;9.97;;;;;;;-145.18;100.00;46646.72;4951658;28;20035;-72
2023/05/06 04:34:50;;;;;;;18.47;10.70;;;;;;;-145.18;100.00;46642.81;4951254;28;20036;-72
2023/05/06 04:37:16;;;;;;;16.60;10.30;;;;;;;-145.18;100.00;46642.81;4951433;29;20118;-72
2023/05/06 04:39:46;;;;;;;15.30;10.40;;;;;;;-145.18;100.00;46646.72;4952018;28;20051;-72
2023/05/06 04:42:12;;;;;;;17.13;10.80;;;;;;;-145.18;100.00;46646.72;4952254;29;20110;-72
2023/05/06 04:44:37;;;;;;;15.70;10.30;;;;;;;-145.18;100.00;46648.69;4935211;29;20043;-72
2023/05/06 04:47:02;;;;;;;15.77;10.37;;;;;;;-145.18;100.00;46646.72;4934879;29;20031;-72
2023/05/06 04:49:28;;;;;;;16.87;9.97;;;;;;;-145.18;100.00;46646.72;4934597;29;20539;-72
2023/05/06 04:51:53;;;;;;;15.77;10.37;;;;;;;-145.18;100.00;46644.78;4952248;29;20035;-72
2023/05/06 04:54:19;;;;;;;15.00;10.47;;;;;;;-145.18;100.00;46648.69;4952328;29;20033;-72
2023/05/06 04:56:44;;;;;;;15.27;10.30;;;;;;;-145.18;100.00;46648.69;4952498;29;20555;-72
2023/05/06 04:59:09;;;;;;;16.40;10.97;;;;;;;-145.18;100.00;46642.81;4952107;29;20046;-72
2023/05/06 05:01:35;;;;;;;19.10;10.50;;;;;;;-145.18;100.00;46650.63;4951993;28;20054;-72
2023/05/06 05:04:00;;;;;;;17.27;10.57;;;;;;;-145.18;100.00;46652.59;4952347;29;20075;-72
2023/05/06 05:06:25;;;;;;;19.10;11.33;;;;;;;-145.18;100.00;46646.72;4952455;29;20117;-72
2023/05/06 05:08:51;;;;;;;16.90;10.80;;;;;;;-145.18;100.00;46646.72;4951684;29;20504;-72
2023/05/06 05:11:16;;;;;;;14.17;10.67;;;;;;;-145.18;100.00;46646.72;4952315;28;20171;-72
2023/05/06 05:13:41;;;;;;;16.03;11.00;;;;;;;-145.18;100.00;46648.69;4952030;29;20122;-72
2023/05/06 05:16:07;;;;;;;19.57;10.10;;;;;;;-145.18;100.00;46650.63;4952404;29;20508;-72
2023/05/06 05:18:32;;;;;;;18.00;11.60;;;;;;;-145.18;100.00;46650.63;4952063;29;20517;-72
2023/05/06 05:20:58;;;;;;;17.27;11.20;;;;;;;-145.18;100.00;46646.72;4952183;29;20027;-72
2023/05/06 05:23:23;;;;;;;18.03;11.50;;;;;;;-145.18;100.00;46650.63;4951607;28;20039;-73
2023/05/06 05:25:48;;;;;;;15.60;10.53;;;;;;;-145.18;100.00;46652.59;4929999;29;20027;-72
2023/05/06 05:28:14;;;;;;;15.53;11.10;;;;;;;-145.18;100.00;46644.78;4939135;29;20481;-72
2023/05/06 05:30:39;;;;;;;17.60;10.50;;;;;;;-145.18;100.00;46646.72;4951657;29;20058;-72
2023/05/06 05:33:05;;;;;;;16.50;10.17;;;;;;;-145.18;100.00;46646.72;4951928;29;20085;-72
2023/05/06 05:35:30;;;;;;;16.40;9.83;;;;;;;-145.18;100.00;46644.78;4951917;29;20041;-72
2023/05/06 05:37:56;;;;;;;15.93;10.73;;;;;;;-145.18;100.00;46650.63;4940735;29;20134;-72
2023/05/06 05:40:21;;;;;;;16.47;10.30;;;;;;;-145.18;100.00;46644.78;4934479;29;20039;-72
2023/05/06 05:42:46;;;;;;;14.73;10.20;;;;;;;-145.18;100.00;46650.63;4951566;28;20059;-72
2023/05/06 05:45:12;;;;;;;17.47;11.97;;;;;;;-145.18;100.00;46646.72;4952482;29;20573;-72
2023/05/06 05:47:37;;;;;;;18.27;11.40;;;;;;;-145.18;100.00;46646.72;4951069;29;20456;-72
2023/05/06 05:50:03;;;;;;;19.23;12.10;;;;;;;-145.18;100.00;46648.69;4951998;29;20063;-72
2023/05/06 05:52:29;;;;;;;20.63;12.03;;;;;;;-145.18;100.00;46648.69;4959752;28;20424;-72
2023/05/06 05:54:54;;;;;;;16.77;10.93;;;;;;;-145.18;100.00;46656.50;4951572;29;20093;-72
2023/05/06 05:57:20;;;;;;;17.37;11.30;;;;;;;-145.18;100.00;46646.72;4951268;29;20267;-72
2023/05/06 05:59:45;;;;;;;18.27;11.23;;;;;;;-145.18;100.00;46650.63;4951538;29;20514;-72
2023/05/06 06:02:10;;;;;;;17.23;11.53;;;;;;;-145.18;100.00;46646.72;4950569;28;20098;-72
2023/05/06 06:04:36;;;;;;;19.53;12.03;;;;;;;-145.18;100.00;46652.59;4933163;29;20036;-72
2023/05/06 06:07:01;;;;;;;21.33;11.83;;;;;;;-145.18;100.00;46648.69;4925090;29;20078;-72
2023/05/06 06:09:27;;;;;;;22.10;11.90;;;;;;;-145.18;100.00;46650.63;4940412;29;20377;-72
2023/05/06 06:11:53;;;;;;;16.97;11.37;;;;;;;-145.18;100.00;46646.72;4951587;28;20032;-72
2023/05/06 06:14:18;;;;;;;19.67;11.97;;;;;;;-145.18;100.00;46648.69;4934268;29;20440;-72
2023/05/06 06:16:44;;;;;;;16.43;10.83;;;;;;;-145.18;100.00;46650.63;4951695;29;20031;-72
2023/05/06 06:19:09;;;;;;;18.00;11.40;;;;;;;-145.18;100.00;46650.63;4950940;28;20050;-71
2023/05/06 06:21:35;;;;;;;18.90;12.37;;;;;;;-145.18;100.00;46648.69;4952218;28;20043;-72
2023/05/06 06:24:01;;;;;;;17.53;11.80;;;;;;;-145.18;100.00;46646.72;4954800;28;20041;-73
2023/05/06 06:26:26;;;;;;;19.57;11.87;;;;;;;-145.18;100.00;46648.69;4937681;29;20493;-72
2023/05/06 06:28:51;;;;;;;21.17;12.23;;;;;;;-145.18;100.00;46648.69;4954517;29;20051;-72
2023/05/06 06:31:17;;;;;;;18.60;11.77;;;;;;;-145.18;100.00;46648.69;4954980;29;20039;-73
2023/05/06 06:33:42;;;;;;;18.93;12.07;;;;;;;-145.18;100.00;46650.63;4937182;29;20043;-72
2023/05/06 06:36:08;;;;;;;16.90;11.50;;;;;;;-145.18;100.00;46648.69;4955066;28;20057;-72
2023/05/06 06:38:33;;;;;;;18.03;11.80;;;;;;;-145.18;100.00;46648.69;4954505;29;20043;-72
2023/05/06 06:40:59;;;;;;;20.27;12.27;;;;;;;-145.18;100.00;46656.50;4954957;29;20756;-72
2023/05/06 06:43:24;;;;;;;20.10;11.73;;;;;;;-145.18;100.00;46650.63;4954643;29;20047;-72
2023/05/06 06:45:50;;;;;;;18.23;11.60;;;;;;;-145.18;100.00;46656.50;4954087;28;20174;-72
2023/05/06 06:48:15;;;;;;;18.83;11.53;;;;;;;-145.18;100.00;46650.63;4954270;29;20036;-72
2023/05/06 06:50:41;;;;;;;16.27;10.93;;;;;;;-145.18;100.00;46658.44;4954454;29;20058;-72
2023/05/06 06:53:07;;;;;;;17.73;11.67;;;;;;;-145.18;100.00;46654.53;4954056;28;20117;-72
2023/05/06 06:55:33;;;;;;;23.53;11.20;;;;;;;-145.18;100.00;46650.63;4954751;29;20042;-72
2023/05/06 06:57:58;;;;;;;19.13;11.80;;;;;;;-145.18;100.00;46652.59;4954163;29;20035;-72
2023/05/06 07:00:24;;;;;;;23.43;12.20;;;;;;;-145.18;100.00;46652.59;4954264;29;20118;-72
2023/05/06 07:02:49;;;;;;;22.90;12.97;;;;;;;-145.18;100.00;46656.50;4953364;28;20071;-72
2023/05/06 07:05:14;;;;;;;23.17;12.33;;;;;;;-145.18;100.00;46658.44;4953721;29;20400;-72
2023/05/06 07:07:40;;;;;;;18.83;12.13;;;;;;;-145.18;100.00;46660.41;4953915;29;20051;-72
2023/05/06 07:10:06;;;;;;;25.70;12.50;;;;;;;-145.18;100.00;46656.50;4936592;29;20043;-72
2023/05/06 07:12:31;;;;;;;21.87;11.43;;;;;;;-145.18;100.00;46662.34;4953969;29;20802;-72
2023/05/06 07:14:57;;;;;;;16.37;10.93;;;;;;;-145.18;100.00;46660.41;4953476;29;20054;-72
2023/05/06 07:17:22;;;;;;;19.03;11.33;;;;;;;-145.18;100.00;46658.44;4953623;28;20129;-72
2023/05/06 07:19:47;;;;;;;21.60;11.90;;;;;;;-145.18;100.00;46666.25;4953418;29;20031;-72
2023/05/06 07:22:13;;;;;;;23.00;12.80;;;;;;;-145.18;100.00;46662.34;4953761;29;20106;-72
2023/05/06 07:24:38;;;;;;;20.83;12.80;;;;;;;-145.18;100.00;46666.25;4953061;28;20489;-72
2023/05/06 07:27:04;;;;;;;19.63;12.47;;;;;;;-145.18;100.00;46666.25;4953571;29;20122;-72
2023/05/06 07:29:29;;;;;;;21.13;13.50;;;;;;;-145.18;100.00;46668.22;4953604;29;20050;-72
2023/05/06 07:31:55;;;;;;;20.93;11.97;;;;;;;-145.18;100.00;46668.22;4953341;29;20043;-72
2023/05/06 07:34:20;;;;;;;23.37;12.33;;;;;;;-145.18;100.00;46668.22;4934703;29;20043;-72
2023/05/06 07:36:45;;;;;;;23.77;13.20;;;;;;;-145.18;100.00;46674.06;4953193;29;20040;-72
2023/05/06 07:39:12;;;;;;;23.30;13.70;;;;;;;-145.18;100.00;46677.97;4953065;29;20472;-72
2023/05/06 07:41:38;;;;;;;21.17;13.53;;;;;;;-145.18;100.00;46674.06;4953132;29;20064;-72
2023/05/06 07:44:03;;;;;;;24.90;14.33;;;;;;;-145.18;100.00;46672.13;4953051;29;20055;-72
2023/05/06 07:46:29;;;;;;;22.63;13.87;;;;;;;-145.18;100.00;46677.97;4953236;29;20461;-72
2023/05/06 07:48:54;;;;;;;24.63;13.43;;;;;;;-145.18;100.00;46679.94;4942185;29;20039;-72
2023/05/06 07:51:20;;;;;;;21.90;14.07;;;;;;;-145.18;100.00;46674.06;4952869;28;20457;-72
2023/05/06 07:53:46;;;;;;;27.90;13.93;;;;;;;-145.18;100.00;46679.94;4935666;29;20070;-72
2023/05/06 07:56:11;;;;;;;28.70;15.27;;;;;;;-145.18;100.00;46677.97;4953329;29;20369;-72
2023/05/06 07:58:36;;;;;;;21.17;13.50;;;;;;;-145.18;100.00;46679.94;4952755;29;20078;-72
2023/05/06 08:01:02;;;;;;;21.23;14.53;;;;;;;-145.18;100.00;46672.13;4952919;28;20408;-72
2023/05/06 08:03:29;;;;;;;26.50;14.77;;;;;;;-145.18;100.00;46644.78;4952378;29;20141;-72
2023/05/06 08:05:54;;;;;;;25.33;14.53;;;;;;;-145.18;100.00;46595.94;4953086;29;20586;-72
2023/05/06 08:08:21;;;;;;;22.10;13.97;;;;;;;-145.18;100.00;46599.84;4952772;28;20089;-72
2023/05/06 08:10:46;;;;;;;23.00;14.17;;;;;;;-145.18;100.00;46599.84;4916516;29;20460;-72
2023/05/06 08:13:11;;;;;;;25.20;13.83;;;;;;;-145.18;100.00;46593.97;4932150;29;20070;-72
2023/05/06 08:15:37;;;;;;;24.33;14.87;;;;;;;-145.18;100.00;46595.94;4950390;28;20035;-72
2023/05/06 08:18:03;;;;;;;22.33;14.83;;;;;;;-145.18;100.00;46607.66;4952604;29;20106;-72
2023/05/06 08:20:28;;;;;;;24.70;13.83;;;;;;;-145.18;100.00;46603.75;4933924;29;20382;-72
2023/05/06 08:22:54;;;;;;;23.47;14.30;;;;;;;-145.18;100.00;46617.41;4916016;29;20043;-72
2023/05/06 08:25:19;;;;;;;26.50;15.33;;;;;;;-145.18;100.00;46593.97;4948410;29;20031;-72
2023/05/06 08:27:45;;;;;;;25.27;13.93;;;;;;;-145.18;100.00;46582.25;4951889;29;20459;-73
2023/05/06 08:30:11;;;;;;;22.73;14.87;;;;;;;-145.18;100.00;46562.72;4952132;29;20058;-72
2023/05/06 08:32:37;;;;;;;21.80;13.90;;;;;;;-145.18;100.00;46558.81;4952331;29;20086;-73
2023/05/06 08:35:03;;;;;;;28.33;14.40;;;;;;;-145.18;100.00;46549.06;4948726;29;20047;-72
2023/05/06 08:37:29;;;;;;;22.50;13.10;;;;;;;-145.18;100.00;46556.88;4952321;29;20031;-73
2023/05/06 08:39:54;;;;;;;23.37;13.93;;;;;;;-145.18;100.00;46551.00;4951600;29;20083;-72
2023/05/06 08:42:23;;;;;;;21.57;13.13;;;;;;;-145.18;100.00;46562.72;4950613;28;20027;-72
2023/05/06 08:44:51;;;;;;;20.07;12.77;;;;;;;-145.18;100.00;46558.81;4951449;28;20488;-72
2023/05/06 08:47:16;;;;;;;20.03;13.10;;;;;;;-145.18;100.00;46556.88;4952281;29;20039;-73
2023/05/06 08:49:42;;;;;;;21.67;14.03;;;;;;;-145.18;100.00;46543.19;4951244;28;20575;-72
2023/05/06 08:52:07;;;;;;;20.53;12.90;;;;;;;-145.18;100.00;46556.88;4951934;28;20453;-73
2023/05/06 08:54:34;;;;;;;21.00;13.33;;;;;;;-145.18;100.00;46560.78;4951688;29;20492;-73
2023/05/06 08:57:03;;;;;;;18.00;11.13;;;;;;;-145.18;100.00;46562.72;4952331;28;20508;-73
2023/05/06 08:59:31;;;;;;;20.77;12.03;;;;;;;-145.18;100.00;46570.53;4951629;28;20039;-72
2023/05/06 09:01:58;;;;;;;22.97;13.33;;;;;;;-145.18;100.00;46570.53;4952065;28;20031;-72
2023/05/06 09:04:24;;;;;;;18.47;11.03;;;;;;;-145.18;100.00;46562.72;4951602;29;20146;-72
2023/05/06 09:06:50;;;;;;;19.00;10.30;;;;;;;-145.18;100.00;46576.41;4952173;29;20496;-72
2023/05/06 09:09:15;;;;;;;17.80;9.87;;;;;;;-145.18;100.00;46572.50;4952004;29;20031;-72
2023/05/06 09:11:41;;;;;;;17.00;9.73;;;;;;;-145.18;100.00;46570.53;4951975;28;20432;-72
2023/05/06 09:14:14;;;;;;;17.90;10.83;;;;;;;-145.18;100.00;46586.16;4952150;29;20035;-72
2023/05/06 09:16:46;;;;;;;18.27;10.57;;;;;;;-145.18;100.00;46578.34;4951546;28;20108;-72
2023/05/06 09:19:13;;;;;;;14.10;10.10;;;;;;;-145.18;100.00;46566.63;4951938;29;20027;-72
2023/05/06 09:21:40;;;;;;;19.10;10.57;;;;;;;-145.18;100.00;46582.25;4951726;29;20031;-72
2023/05/06 09:24:07;;;;;;;17.17;9.67;;;;;;;-145.18;100.00;46578.34;4951872;28;20035;-72
2023/05/06 09:26:35;;;;;;;18.50;10.20;;;;;;;-145.18;100.00;46582.25;4934956;29;20469;-72
2023/05/06 09:29:01;;;;;;;17.27;9.90;;;;;;;-145.18;100.00;46611.56;4950995;28;20520;-72
2023/05/06 09:31:27;;;;;;;17.33;9.17;;;;;;;-145.18;100.00;46599.84;4952147;28;20106;-72
2023/05/06 09:33:55;;;;;;;11.63;7.57;;;;;;;-145.18;100.00;46621.31;4951410;29;20587;-72
2023/05/06 09:36:22;;;;;;;15.47;9.03;;;;;;;-145.18;100.00;46642.81;4939433;29;20070;-72
2023/05/06 09:38:48;;;;;;;12.90;9.07;;;;;;;-145.18;100.00;46650.63;4951361;29;20043;-72
2023/05/06 09:41:14;;;;;;;14.30;8.77;;;;;;;-145.18;100.00;46648.69;4951509;28;20043;-72
2023/05/06 09:43:43;;;;;;;15.53;8.20;;;;;;;-145.18;100.00;46648.69;4951767;29;20074;-72
2023/05/06 09:46:11;;;;;;;10.17;7.17;;;;;;;-145.18;100.00;46644.78;4951652;29;20374;-72
2023/05/06 09:48:39;;;;;;;12.07;6.97;;;;;;;-145.18;100.00;46797.13;4950945;29;20035;-72
2023/05/06 09:51:06;;;;;;;11.20;6.50;;;;;;;-145.18;100.00;47137.03;4951490;29;20054;-72
2023/05/06 09:53:34;;;;;;;10.73;6.70;;;;;;;-145.18;100.00;47201.50;4951040;29;20499;-72
2023/05/06 09:56:00;;;;;;;13.20;7.17;;;;;;;-145.18;100.00;47203.47;4951249;28;20094;-72
2023/05/06 09:58:26;;;;;;;11.60;6.90;;;;;;;-145.18;100.00;47226.91;4955036;28;20043;-72
2023/05/06 10:00:53;;;;;;;11.40;6.13;;;;;;;-145.18;100.00;47146.81;4954997;29;20034;-72
2023/05/06 10:03:20;;;;;;;10.33;6.83;;;;;;;-145.18;100.00;47146.81;4954189;28;20825;-72
2023/05/06 10:05:46;;;;;;;11.37;7.60;;;;;;;-145.18;100.00;47146.81;4955020;29;20507;-72
2023/05/06 10:08:17;;;;;;;12.60;6.93;;;;;;;-145.18;100.00;47158.53;4955094;29;20031;-72
2023/05/06 10:10:43;;;;;;;16.70;7.67;;;;;;;-145.18;100.00;47178.06;4954612;28;20649;-72
2023/05/06 10:13:09;;;;;;;15.00;8.20;;;;;;;-145.18;100.00;47183.94;4937986;29;20119;-72
2023/05/06 10:15:36;;;;;;;12.03;8.40;;;;;;;-145.18;100.00;47158.53;4955206;29;20122;-72
2023/05/06 10:18:03;;;;;;;14.57;7.70;;;;;;;-145.18;100.00;47137.03;4955036;28;20085;-72
2023/05/06 10:20:30;;;;;;;11.63;8.23;;;;;;;-145.18;100.00;47119.47;4954773;29;20035;-71
2023/05/06 10:23:25;;;;;;;12.50;7.63;;;;;;;-145.18;100.00;47111.66;4954917;28;20031;-72
2023/05/06 10:25:55;;;;;;;11.37;6.70;;;;;;;-145.18;100.00;47111.66;4954113;28;20035;-72
2023/05/06 10:28:21;;;;;;;12.30;7.03;;;;;;;-145.18;100.00;47113.59;4954332;29;20090;-72
2023/05/06 10:30:48;;;;;;;9.23;6.07;;;;;;;-145.18;100.00;47096.00;4954533;28;20035;-72
2023/05/06 10:33:14;;;;;;;10.77;6.50;;;;;;;-145.18;100.00;47082.34;4954794;28;20042;-72
2023/05/06 10:35:40;;;;;;;10.43;6.47;;;;;;;-145.18;100.00;47088.19;4954491;28;20039;-72
2023/05/06 10:38:15;;;;;;;11.83;6.70;;;;;;;-145.18;100.00;47084.28;4954426;28;20162;-72
2023/05/06 10:40:41;;;;;;;11.50;6.53;;;;;;;-145.18;100.00;47082.34;4953618;29;20488;-72
2023/05/06 10:43:25;;;;;;;11.93;6.67;;;;;;;-145.18;100.00;47086.25;4954504;29;20073;-71
2023/05/06 10:46:17;;;;;;;7.20;5.33;;;;;;;-145.18;100.00;47070.63;4936809;29;20034;-72
2023/05/06 10:49:04;;;;;;;10.47;6.17;;;;;;;-145.18;100.00;47076.47;4950112;29;20051;-72
2023/05/06 10:51:31;;;;;;;10.87;6.03;;;;;;;-145.18;100.00;47090.16;4954665;29;20051;-72
2023/05/06 10:54:01;;;;;;;12.17;5.83;;;;;;;-145.18;100.00;47070.63;4953303;29;20477;-72
2023/05/06 10:56:26;;;;;;;10.80;5.50;;;;;;;-145.18;100.00;47072.56;4954046;28;20515;-72